Brent, United Kingdom
Current Conditions -  °F | °C
As of 6:50 PM on Friday 24 Oct 2014 (Local Time) from EGWU Reporting Station
Broken Clouds Broken Clouds  
Wind Chill: 61°   Ceiling: 3500
Heat Index: 61°   Visibility: 6mi
Dew Point: 55°   Wind: 8mph
Humidity: 82%   Direction: 220°SW
Pressure: 29.88"   Gusts: NA
Location:  51.55°N, 0.3°W
Report Text: EGWU 241750Z 22007KT 9999 SCT018 BKN035 16/13 Q1012 TEMPO 7000 RA SCT012
Loading
Personal Weather Stations






























Interactive Weather Map New forecast layout! Learn more

10-Day Weather Forecast

Advertisements
Track Severe Weather on mobile